Time;durP1;ratioP1;P1;durP2;ratioP2;P2;SDS_P1;SDS_P2;PMS_P1;PMS_P2;Temp;Humidity;BMP_temperature;BMP_pressure;BME280_temperature;BME280_humidity;BME280_pressure;Samples;Min_cycle;Max_cycle;Signal;HPM_P1;HPM_P2
2022/11/25 00:01:21;;;;;;;;;9.25;5.00;;;;;12.76;65.50;100446.44;5034389;27;45466;-36
2022/11/25 00:03:47;;;;;;;;;10.00;4.50;;;;;12.73;65.75;100442.19;5038006;28;45328;-37
2022/11/25 00:06:18;;;;;;;;;11.00;5.50;;;;;12.73;65.72;100444.81;5032861;28;45370;-37
2022/11/25 00:08:45;;;;;;;;;7.75;5.00;;;;;12.71;65.46;100442.25;5038615;28;45172;-36
2022/11/25 00:11:11;;;;;;;;;5.50;4.75;;;;;12.70;65.31;100450.19;5026217;27;45754;-37
2022/11/25 00:13:38;;;;;;;;;5.50;3.00;;;;;12.72;65.61;100438.69;5034299;28;45283;-37
2022/11/25 00:16:05;;;;;;;;;7.75;4.00;;;;;12.74;65.17;100433.38;5038609;28;46283;-37
2022/11/25 00:18:31;;;;;;;;;5.25;4.00;;;;;12.73;65.56;100429.91;5034930;28;48464;-37
2022/11/25 00:20:57;;;;;;;;;3.50;3.00;;;;;12.73;65.21;100448.28;5033120;28;45422;-37
2022/11/25 00:23:23;;;;;;;;;5.00;3.25;;;;;12.75;65.52;100445.59;5053989;28;45322;-37
2022/11/25 00:25:48;;;;;;;;;5.75;3.75;;;;;12.76;65.13;100452.53;5054010;28;45476;-37
2022/11/25 00:28:14;;;;;;;;;5.75;3.75;;;;;12.76;65.45;100455.16;5044187;28;45533;-36
2022/11/25 00:30:39;;;;;;;;;8.25;2.75;;;;;12.77;65.38;100450.81;5062420;27;45389;-36
2022/11/25 00:33:05;;;;;;;;;8.00;3.50;;;;;12.75;64.97;100450.84;5033917;28;49828;-38
2022/11/25 00:35:30;;;;;;;;;3.75;3.00;;;;;12.76;65.53;100455.16;5027745;27;45945;-38
2022/11/25 00:37:56;;;;;;;;;5.00;3.00;;;;;12.77;65.32;100451.66;5048043;28;46076;-37
2022/11/25 00:40:21;;;;;;;;;5.75;2.25;;;;;12.79;65.36;100454.22;5050584;28;45397;-37
2022/11/25 00:45:30;;;;;;;;;5.25;3.50;;;;;12.82;65.04;100459.31;5031371;28;46416;-38
2022/11/25 00:47:56;;;;;;;;;3.50;2.50;;;;;12.82;65.48;100456.69;5039257;28;57680;-37
2022/11/25 00:50:21;;;;;;;;;3.25;3.00;;;;;12.80;64.82;100461.16;5038576;28;45339;-37
2022/11/25 00:52:46;;;;;;;;;4.50;2.25;;;;;12.78;65.30;100463.00;5037826;28;45313;-37
2022/11/25 00:55:12;;;;;;;;;6.00;2.00;;;;;12.75;65.13;100461.38;5033028;28;55458;-37
2022/11/25 00:57:37;;;;;;;;;3.00;2.50;;;;;12.75;64.75;100463.97;5025611;28;67850;-37
2022/11/25 01:00:04;;;;;;;;;3.00;3.00;;;;;12.75;65.20;100463.97;5029214;28;58050;-37
2022/11/25 01:02:29;;;;;;;;;2.75;1.00;;;;;12.75;64.96;100463.97;5028068;27;45458;-37
2022/11/25 01:04:54;;;;;;;;;6.50;2.00;;;;;12.73;65.23;100457.94;5032768;28;45311;-37
2022/11/25 01:07:20;;;;;;;;;6.00;4.50;;;;;12.72;65.31;100459.69;5029861;28;69574;-37
2022/11/25 01:09:46;;;;;;;;;5.00;4.00;;;;;12.72;64.72;100478.06;5035522;28;66348;-35
2022/11/25 01:12:12;;;;;;;;;6.75;2.50;;;;;12.70;65.01;100479.91;5027805;28;45310;-35
2022/11/25 01:14:37;;;;;;;;;2.00;2.00;;;;;12.70;64.87;100486.94;5030925;28;45446;-35
2022/11/25 01:17:03;;;;;;;;;3.50;2.25;;;;;12.67;64.94;100487.06;5028200;28;67348;-35
2022/11/25 01:19:28;;;;;;;;;4.25;2.25;;;;;12.65;64.71;100492.38;5043620;28;45281;-35
2022/11/25 01:21:54;;;;;;;;;6.25;2.75;;;;;12.62;64.59;100492.47;5020833;28;59728;-35
2022/11/25 01:24:19;;;;;;;;;4.00;2.00;;;;;12.60;64.90;100489.06;5029264;28;71152;-35
2022/11/25 01:26:45;;;;;;;;;5.75;4.00;;;;;12.60;64.95;100499.56;5019474;28;52923;-35
2022/11/25 01:29:15;;;;;;;;;7.00;4.00;;;;;12.59;65.02;100504.88;5030180;28;45735;-35
2022/11/25 01:31:41;;;;;;;;;4.00;4.00;;;;;12.57;64.78;100507.59;5031606;28;45354;-35
2022/11/25 01:34:11;;;;;;;;;9.00;4.00;;;;;12.54;65.20;100503.28;5030743;27;45396;-35
2022/11/25 01:36:38;;;;;;;;;4.75;3.00;;;;;12.53;65.02;100517.31;5028793;28;46302;-35
2022/11/25 01:39:04;;;;;;;;;5.75;1.50;;;;;12.54;65.39;100518.19;5033613;28;62123;-35
2022/11/25 01:41:31;;;;;;;;;4.25;3.00;;;;;12.52;65.21;100535.78;5037737;28;45262;-35
2022/11/25 01:44:13;;;;;;;;;5.00;3.00;;;;;12.50;65.09;100535.84;5037524;28;45422;-39
2022/11/25 01:46:44;;;;;;;;;4.00;2.75;;;;;12.49;65.00;100543.75;5025368;28;45537;-36
2022/11/25 01:49:15;;;;;;;;;6.75;3.00;;;;;12.45;65.31;100543.03;5028787;28;45465;-36
2022/11/25 01:51:50;;;;;;;;;5.00;4.00;;;;;12.47;64.87;100550.84;5039728;28;45241;-36
2022/11/25 01:54:18;;;;;;;;;5.25;3.00;;;;;12.44;65.34;100546.53;5044039;28;45215;-36
2022/11/25 01:56:54;;;;;;;;;5.50;2.00;;;;;12.43;64.80;100549.22;5037436;28;47416;-37
2022/11/25 01:59:20;;;;;;;;;5.25;3.50;;;;;12.42;64.83;100553.63;5024740;28;45296;-37
2022/11/25 02:01:45;;;;;;;;;4.00;4.00;;;;;12.40;65.17;100546.75;5036126;27;64507;-36
2022/11/25 02:04:13;;;;;;;;;4.75;2.00;;;;;12.38;65.05;100556.41;5023424;28;45319;-36
2022/11/25 02:06:44;;;;;;;;;4.75;3.25;;;;;12.38;65.43;100559.03;5035601;27;45360;-36
2022/11/25 02:09:09;;;;;;;;;3.75;2.00;;;;;12.37;65.42;100568.69;5029876;28;45315;-36
2022/11/25 02:11:38;;;;;;;;;4.00;3.75;;;;;12.35;65.21;100560.88;5031053;28;61964;-36
2022/11/25 02:14:04;;;;;;;;;4.50;3.00;;;;;12.36;65.21;100569.63;5026221;28;45268;-36
2022/11/25 02:16:30;;;;;;;;;4.00;2.00;;;;;12.31;65.23;100564.53;5046393;28;46221;-36
2022/11/25 02:18:55;;;;;;;;;3.75;2.00;;;;;12.30;65.07;100570.66;5023358;28;72427;-36
2022/11/25 02:21:29;;;;;;;;;5.25;3.00;;;;;12.30;64.96;100568.03;5038565;28;45328;-36
2022/11/25 02:24:03;;;;;;;;;5.75;3.00;;;;;12.28;65.30;100561.16;5033395;28;45657;-36
2022/11/25 02:26:30;;;;;;;;;3.75;3.25;;;;;12.27;65.52;100576.06;5035799;28;45346;-36
2022/11/25 02:28:56;;;;;;;;;5.00;3.00;;;;;12.26;65.45;100579.56;5023998;28;45327;-36
2022/11/25 02:31:22;;;;;;;;;5.25;4.00;;;;;12.25;65.09;100595.38;5027502;28;45221;-36
2022/11/25 02:33:48;;;;;;;;;4.75;2.50;;;;;12.22;65.36;100587.63;5028883;27;45530;-36
2022/11/25 02:36:15;;;;;;;;;3.00;2.00;;;;;12.21;65.10;100588.53;5034013;28;59813;-36
2022/11/25 02:38:41;;;;;;;;;5.00;3.00;;;;;12.19;65.08;100595.59;5037031;28;45274;-36
2022/11/25 02:41:09;;;;;;;;;4.33;3.00;;;;;12.17;65.37;100600.06;5027006;28;45243;-36
2022/11/25 02:43:36;;;;;;;;;3.00;3.00;;;;;12.14;65.25;100599.22;5018564;28;45452;-36
2022/11/25 02:46:08;;;;;;;;;5.50;2.00;;;;;12.12;65.33;100597.59;5028573;28;46941;-36
2022/11/25 02:48:36;;;;;;;;;4.50;2.00;;;;;12.11;65.16;100604.59;5034110;28;46301;-36
2022/11/25 02:51:02;;;;;;;;;7.00;1.50;;;;;12.06;65.35;100603.91;5025243;28;45317;-36
2022/11/25 02:53:27;;;;;;;;;6.00;1.50;;;;;12.04;65.31;100607.47;5028440;28;45351;-36
2022/11/25 02:55:53;;;;;;;;;3.75;1.00;;;;;12.04;65.25;100615.34;5035938;28;45267;-36
2022/11/25 02:58:18;;;;;;;;;3.25;2.25;;;;;12.01;65.34;100616.31;5025676;27;45227;-36
2022/11/25 03:00:44;;;;;;;;;6.00;2.50;;;;;12.00;65.58;100613.75;5034863;28;45428;-36
2022/11/25 03:03:10;;;;;;;;;7.00;1.00;;;;;12.00;65.29;100619.00;5034041;27;45307;-36
2022/11/25 03:05:35;;;;;;;;;7.50;2.00;;;;;12.00;65.49;100624.25;5030107;28;46131;-36
2022/11/25 03:08:00;;;;;;;;;4.25;2.00;;;;;11.99;65.54;100631.25;5040388;28;63280;-36
2022/11/25 03:10:26;;;;;;;;;3.00;1.50;;;;;11.99;65.26;100630.38;5047622;28;59667;-36
2022/11/25 03:12:51;;;;;;;;;3.75;2.25;;;;;11.99;65.14;100635.63;5042216;28;45312;-36
2022/11/25 03:15:17;;;;;;;;;7.00;3.00;;;;;12.00;65.00;100634.75;5024894;28;71943;-38
2022/11/25 03:17:42;;;;;;;;;4.75;2.00;;;;;12.00;65.40;100643.44;5041906;28;45451;-36
2022/11/25 03:20:08;;;;;;;;;3.75;2.00;;;;;11.98;65.36;100636.56;5025366;28;63779;-36
2022/11/25 03:22:34;;;;;;;;;5.75;3.75;;;;;11.99;65.16;100647.00;5029569;28;45425;-36
2022/11/25 03:25:00;;;;;;;;;5.50;3.00;;;;;12.00;65.30;100658.34;5030883;28;45241;-36
2022/11/25 03:27:25;;;;;;;;;5.75;3.00;;;;;11.99;65.21;100654.88;5030491;28;45377;-36
2022/11/25 03:29:50;;;;;;;;;1.25;1.00;;;;;12.00;65.10;100661.81;5035315;28;61100;-36
2022/11/25 03:32:16;;;;;;;;;4.50;2.00;;;;;12.00;65.21;100666.22;5030348;28;61845;-36
2022/11/25 03:34:41;;;;;;;;;3.00;1.50;;;;;11.99;65.26;100672.34;5031729;27;45506;-36
2022/11/25 03:37:06;;;;;;;;;3.50;1.25;;;;;12.00;65.15;100676.69;5040772;28;71859;-37
2022/11/25 03:39:32;;;;;;;;;3.50;2.00;;;;;11.99;65.12;100678.47;5036641;28;45440;-36
2022/11/25 03:41:57;;;;;;;;;4.50;2.00;;;;;12.00;65.02;100681.94;5042854;28;67332;-36
2022/11/25 03:44:23;;;;;;;;;3.75;1.50;;;;;11.99;65.30;100686.34;5032385;28;74882;-37
2022/11/25 03:46:48;;;;;;;;;2.00;2.00;;;;;11.97;65.20;100693.41;5070453;27;45292;-37
2022/11/25 03:49:14;;;;;;;;;5.50;2.00;;;;;11.99;65.33;100703.81;5036115;28;62402;-36
2022/11/25 03:51:39;;;;;;;;;3.50;1.00;;;;;11.98;64.85;100700.34;5027654;28;50878;-43
2022/11/25 03:54:04;;;;;;;;;3.00;3.00;;;;;11.98;64.87;100704.75;5033360;28;62620;-36
2022/11/25 03:56:30;;;;;;;;;3.00;2.50;;;;;11.96;64.94;100705.66;5029665;28;45275;-37
2022/11/25 03:58:55;;;;;;;;;2.00;2.00;;;;;11.95;65.10;100703.94;5030188;28;46183;-37
2022/11/25 04:01:20;;;;;;;;;2.75;2.50;;;;;11.95;65.28;100705.69;5027878;27;45601;-37
2022/11/25 04:03:46;;;;;;;;;4.75;2.00;;;;;11.96;65.16;100707.41;5041347;27;64406;-36
2022/11/25 04:06:11;;;;;;;;;5.00;2.00;;;;;11.97;65.35;100717.00;5033272;28;63740;-36
2022/11/25 04:08:36;;;;;;;;;1.00;1.00;;;;;11.95;65.11;100718.81;5035658;28;45280;-36
2022/11/25 04:11:02;;;;;;;;;3.00;2.00;;;;;11.95;65.26;100716.19;5026152;28;45421;-36
2022/11/25 04:13:28;;;;;;;;;6.75;2.00;;;;;11.97;65.08;100722.25;5032934;28;48693;-36
2022/11/25 04:15:53;;;;;;;;;6.00;3.00;;;;;11.98;65.07;100723.97;5033462;28;69223;-36
2022/11/25 04:18:19;;;;;;;;;3.00;2.00;;;;;11.98;64.82;100723.97;5038489;28;63386;-36
2022/11/25 04:20:44;;;;;;;;;4.00;2.75;;;;;11.96;65.06;100731.88;5027893;28;45453;-35
2022/11/25 04:23:11;;;;;;;;;3.50;2.00;;;;;11.95;65.08;100731.91;5038287;28;45821;-36
2022/11/25 04:25:36;;;;;;;;;6.00;2.00;;;;;11.93;64.92;100734.63;5024839;28;45329;-36
2022/11/25 04:28:03;;;;;;;;;4.50;1.50;;;;;11.94;64.99;100740.72;5028674;28;45380;-36
2022/11/25 04:30:28;;;;;;;;;7.00;3.00;;;;;11.94;64.78;100748.56;5033967;28;45256;-36
2022/11/25 04:32:54;;;;;;;;;5.00;4.00;;;;;11.93;65.00;100752.97;5032822;28;52487;-36
2022/11/25 04:35:19;;;;;;;;;7.50;4.00;;;;;11.93;65.01;100749.47;5031704;27;69784;-36
2022/11/25 04:37:44;;;;;;;;;4.00;3.25;;;;;11.93;65.48;100746.84;5031335;28;64966;-36
2022/11/25 04:40:10;;;;;;;;;3.00;3.00;;;;;11.90;65.03;100753.06;5034496;28;70044;-36
2022/11/25 04:42:36;;;;;;;;;4.00;2.25;;;;;11.90;64.78;100760.94;5034576;28;45535;-36
2022/11/25 04:45:16;;;;;;;;;7.50;3.00;;;;;11.90;65.07;100762.69;5033320;28;45339;-36
2022/11/25 04:47:42;;;;;;;;;4.25;2.50;;;;;11.89;65.31;100764.41;5033332;28;45188;-36
2022/11/25 04:50:13;;;;;;;;;5.50;4.00;;;;;11.87;65.30;100761.00;5029022;28;45485;-36
2022/11/25 04:52:38;;;;;;;;;5.00;3.75;;;;;11.86;65.01;100774.16;5032414;28;45444;-36
2022/11/25 04:55:04;;;;;;;;;7.25;4.25;;;;;11.85;65.14;100769.81;5034598;28;67271;-36
2022/11/25 04:57:29;;;;;;;;;5.00;3.00;;;;;11.80;65.33;100772.59;5036613;28;45426;-36
2022/11/25 04:59:55;;;;;;;;;4.00;4.00;;;;;11.80;65.12;100784.84;5034672;28;55114;-36
2022/11/25 05:02:22;;;;;;;;;6.50;3.50;;;;;11.77;65.01;100780.53;5025487;27;70253;-36
2022/11/25 05:04:51;;;;;;;;;5.00;2.00;;;;;11.76;65.70;100791.94;5056840;28;45366;-36
2022/11/25 05:07:18;;;;;;;;;5.00;3.00;;;;;11.76;64.94;100797.19;5027623;28;45399;-36
2022/11/25 05:09:44;;;;;;;;;9.00;2.75;;;;;11.75;65.33;100793.69;5032678;27;45357;-36
2022/11/25 05:12:13;;;;;;;;;3.75;2.75;;;;;11.74;65.55;100799.00;5030920;28;45440;-36
2022/11/25 05:14:38;;;;;;;;;4.75;2.25;;;;;11.71;65.38;100801.72;5035584;28;45773;-36
2022/11/25 05:17:05;;;;;;;;;3.25;3.25;;;;;11.71;65.54;100804.34;5027063;28;64662;-36
2022/11/25 05:19:30;;;;;;;;;5.75;2.75;;;;;11.70;65.34;100813.94;5026227;28;45520;-36
2022/11/25 05:21:56;;;;;;;;;6.50;2.75;;;;;11.70;65.20;100820.97;5021683;28;46001;-36
2022/11/25 05:24:21;;;;;;;;;3.75;3.00;;;;;11.71;65.25;100820.06;5031591;28;66845;-36
2022/11/25 05:26:46;;;;;;;;;2.75;2.75;;;;;11.70;65.15;100820.97;5029950;28;55916;-36
2022/11/25 05:29:12;;;;;;;;;11.75;3.25;;;;;11.70;65.48;100819.19;5035671;28;45463;-36
2022/11/25 05:31:37;;;;;;;;;6.00;3.00;;;;;11.71;65.14;100828.78;5037367;28;56351;-36
2022/11/25 05:34:03;;;;;;;;;5.50;3.25;;;;;11.69;65.04;100835.00;5030185;27;45429;-36
2022/11/25 05:36:28;;;;;;;;;7.00;3.75;;;;;11.69;65.24;100835.84;5034853;28;45435;-35
2022/11/25 05:38:55;;;;;;;;;7.00;3.25;;;;;11.68;65.19;100838.50;5033386;28;72101;-36
2022/11/25 05:41:20;;;;;;;;;6.00;3.75;;;;;11.66;65.31;100841.16;5037060;28;46119;-36
2022/11/25 05:43:46;;;;;;;;;4.75;2.75;;;;;11.66;65.63;100841.16;5036001;28;63385;-37
2022/11/25 05:46:12;;;;;;;;;7.75;4.75;;;;;11.67;65.27;100849.88;5034277;28;45289;-36
2022/11/25 05:48:37;;;;;;;;;8.50;4.00;;;;;11.64;65.20;100848.22;5032471;28;45335;-36
2022/11/25 05:51:03;;;;;;;;;6.00;3.00;;;;;11.63;65.24;100851.72;5029006;28;46218;-36
2022/11/25 05:53:29;;;;;;;;;3.75;3.00;;;;;11.63;65.67;100858.75;5047510;28;45455;-36
2022/11/25 05:55:57;;;;;;;;;6.75;4.00;;;;;11.62;65.30;100855.28;5024905;28;45384;-36
2022/11/25 05:58:23;;;;;;;;;6.25;3.00;;;;;11.59;65.38;100858.81;5052938;28;45450;-36
2022/11/25 06:00:48;;;;;;;;;4.00;4.00;;;;;11.58;65.52;100858.91;5030168;28;46672;-36
2022/11/25 06:03:14;;;;;;;;;5.25;2.50;;;;;11.58;65.26;100858.91;5029795;27;45296;-37
2022/11/25 06:05:40;;;;;;;;;5.50;3.50;;;;;11.58;65.19;100853.66;5031611;28;45435;-37
2022/11/25 06:08:06;;;;;;;;;6.00;4.00;;;;;11.57;65.51;100858.00;5031221;28;45249;-37
2022/11/25 06:10:31;;;;;;;;;7.50;4.00;;;;;11.55;65.16;100865.06;5031740;28;46134;-38
2022/11/25 06:12:56;;;;;;;;;3.25;2.00;;;;;11.53;65.42;100866.88;5042829;28;46204;-37
2022/11/25 06:15:22;;;;;;;;;6.75;4.00;;;;;11.55;65.33;100869.47;5029841;28;66236;-37
2022/11/25 06:17:47;;;;;;;;;5.25;2.50;;;;;11.51;65.29;100868.69;5032324;28;45564;-37
2022/11/25 06:20:12;;;;;;;;;3.50;3.00;;;;;11.49;65.41;100873.13;5029333;28;45611;-37
2022/11/25 06:22:38;;;;;;;;;8.00;2.75;;;;;11.46;65.15;100874.97;5037943;28;45259;-37
2022/11/25 06:25:04;;;;;;;;;4.00;4.00;;;;;11.43;65.30;100873.28;5043568;28;64898;-37
2022/11/25 06:27:29;;;;;;;;;4.00;3.00;;;;;11.42;65.45;100871.59;5027255;28;45275;-38
2022/11/25 06:29:55;;;;;;;;;3.00;2.00;;;;;11.44;64.95;100887.25;5036833;28;46341;-36
2022/11/25 06:32:20;;;;;;;;;9.00;3.00;;;;;11.43;65.23;100893.41;5026417;28;66682;-36
2022/11/25 06:34:45;;;;;;;;;3.50;2.00;;;;;11.41;65.38;100898.69;5026804;27;45490;-36
2022/11/25 06:37:11;;;;;;;;;7.50;2.25;;;;;11.39;65.60;100897.88;5034757;28;51718;-36
2022/11/25 06:39:36;;;;;;;;;2.50;2.50;;;;;11.38;65.38;100894.41;5056800;27;64558;-36
2022/11/25 06:42:01;;;;;;;;;12.75;3.00;;;;;11.40;65.32;100897.81;5035054;27;69407;-36
2022/11/25 06:44:27;;;;;;;;;4.25;1.50;;;;;11.40;65.17;100908.31;5031421;28;50436;-36
2022/11/25 06:46:52;;;;;;;;;7.00;4.00;;;;;11.39;65.02;100909.19;5027613;28;68936;-37
2022/11/25 06:49:17;;;;;;;;;6.25;5.00;;;;;11.39;64.97;100913.59;5023595;28;54978;-37
2022/11/25 06:51:43;;;;;;;;;4.75;2.50;;;;;11.36;65.23;100911.03;5032750;28;64248;-36
2022/11/25 06:54:09;;;;;;;;;7.00;3.00;;;;;11.34;65.32;100921.56;5030991;28;62433;-41
2022/11/25 06:56:35;;;;;;;;;7.75;3.00;;;;;11.34;65.19;100918.09;5033261;28;45577;-36
2022/11/25 06:59:00;;;;;;;;;10.00;3.50;;;;;11.34;64.91;100918.09;5032024;28;45584;-39
2022/11/25 07:01:27;;;;;;;;;3.50;3.50;;;;;11.32;65.02;100915.50;5028590;27;45219;-36
2022/11/25 07:04:04;;;;;;;;;5.75;4.00;;;;;11.34;65.13;100926.81;5030618;28;45229;-36
2022/11/25 07:06:30;;;;;;;;;4.00;3.00;;;;;11.33;64.94;100924.22;5033856;28;45405;-36
2022/11/25 07:08:56;;;;;;;;;6.00;3.00;;;;;11.33;65.06;100927.72;5031569;28;45443;-36
2022/11/25 07:11:30;;;;;;;;;5.25;3.00;;;;;11.33;65.43;100927.72;5039298;28;45308;-36
2022/11/25 07:13:57;;;;;;;;;5.75;4.50;;;;;11.33;64.86;100938.19;5042314;28;45319;-37
2022/11/25 07:16:23;;;;;;;;;4.00;3.00;;;;;11.32;64.81;100936.47;5035289;28;45429;-36
2022/11/25 07:18:48;;;;;;;;;2.50;2.00;;;;;11.34;64.87;100942.53;5031015;28;45394;-36
2022/11/25 07:21:17;;;;;;;;;9.25;4.00;;;;;11.35;65.20;100948.63;5029865;28;55375;-36
2022/11/25 07:23:43;;;;;;;;;6.00;4.00;;;;;11.34;64.70;100958.25;5028302;28;45181;-36
2022/11/25 07:26:11;;;;;;;;;7.00;5.00;;;;;11.33;64.87;100963.53;5033986;28;45260;-36
2022/11/25 07:28:37;;;;;;;;;7.75;5.00;;;;;11.34;64.85;100973.97;5029081;28;45555;-36
2022/11/25 07:31:23;;;;;;;;;9.50;4.50;;;;;11.36;65.12;100987.03;5061869;28;45331;-36
2022/11/25 07:33:54;;;;;;;;;6.75;3.50;;;;;11.35;64.83;100982.69;5038745;27;45296;-37
2022/11/25 07:36:20;;;;;;;;;7.25;5.00;;;;;11.31;65.02;100979.28;5036957;28;45452;-36
2022/11/25 07:38:45;;;;;;;;;5.50;3.75;;;;;11.33;64.77;100985.38;5033190;28;45363;-37
2022/11/25 07:41:13;;;;;;;;;7.50;5.00;;;;;11.33;65.04;100987.97;5035256;28;59928;-36
2022/11/25 07:43:39;;;;;;;;;8.75;4.00;;;;;11.34;64.95;100991.47;5046220;28;45330;-37
2022/11/25 07:46:16;;;;;;;;;6.50;3.75;;;;;11.35;64.76;100991.41;5039824;28;69710;-36
2022/11/25 07:48:41;;;;;;;;;7.00;5.25;;;;;11.35;64.99;100994.03;5034978;28;46352;-37
2022/11/25 07:51:18;;;;;;;;;6.25;4.50;;;;;11.35;64.86;101001.91;5048517;28;45319;-36
2022/11/25 07:53:44;;;;;;;;;6.75;5.00;;;;;11.35;64.92;101006.25;5029087;28;46566;-37
2022/11/25 07:56:10;;;;;;;;;8.00;5.25;;;;;11.34;64.73;101013.25;5037771;28;45345;-36
2022/11/25 07:58:35;;;;;;;;;9.75;4.00;;;;;11.32;64.90;101009.84;5047570;28;46231;-36
2022/11/25 08:01:02;;;;;;;;;10.00;4.75;;;;;11.31;64.86;101021.19;5024234;28;58202;-37
2022/11/25 08:03:28;;;;;;;;;10.50;5.25;;;;;11.33;64.91;101035.16;5034861;27;45286;-36
2022/11/25 08:05:53;;;;;;;;;7.50;4.25;;;;;11.33;64.38;101043.00;5041186;27;72929;-36
2022/11/25 08:08:18;;;;;;;;;6.00;4.00;;;;;11.33;64.86;101047.38;5037955;28;45315;-36
2022/11/25 08:10:44;;;;;;;;;7.25;3.75;;;;;11.33;64.60;101055.22;5032491;28;45336;-36
2022/11/25 08:13:09;;;;;;;;;13.50;5.00;;;;;11.32;64.48;101059.63;5044495;28;64893;-36
2022/11/25 08:15:34;;;;;;;;;5.50;3.00;;;;;11.33;64.60;101063.97;5034349;28;45341;-36
2022/11/25 08:18:00;;;;;;;;;11.25;4.50;;;;;11.35;64.81;101064.78;5029610;28;57169;-36
2022/11/25 08:20:25;;;;;;;;;9.00;5.75;;;;;11.34;64.67;101064.81;5030034;28;66939;-36
2022/11/25 08:22:52;;;;;;;;;7.50;4.75;;;;;11.35;64.41;101070.03;5030209;28;45493;-36
2022/11/25 08:25:18;;;;;;;;;8.75;6.00;;;;;11.34;64.61;101073.53;5034369;28;46256;-36
2022/11/25 08:27:43;;;;;;;;;7.75;5.00;;;;;11.34;64.51;101075.31;5026544;28;67595;-37
2022/11/25 08:30:09;;;;;;;;;6.75;5.00;;;;;11.35;64.62;101077.88;5020815;28;45537;-36
2022/11/25 08:32:38;;;;;;;;;12.25;6.50;;;;;11.36;64.79;101087.44;5033063;28;45299;-36
2022/11/25 08:35:04;;;;;;;;;9.50;5.50;;;;;11.39;64.48;101091.78;5035381;27;45715;-36
2022/11/25 08:37:30;;;;;;;;;10.00;5.25;;;;;11.38;64.63;101090.03;5024261;28;45719;-36
2022/11/25 08:39:55;;;;;;;;;4.50;4.00;;;;;11.39;64.56;101095.25;5033831;28;45220;-36
2022/11/25 08:42:21;;;;;;;;;9.00;6.00;;;;;11.36;64.42;101100.56;5039233;28;54212;-36
2022/11/25 08:44:54;;;;;;;;;6.50;5.00;;;;;11.39;64.61;101097.00;5034763;28;45336;-36
2022/11/25 08:47:20;;;;;;;;;9.00;5.75;;;;;11.40;64.35;101110.09;5041361;28;47499;-36
2022/11/25 08:49:48;;;;;;;;;8.75;7.75;;;;;11.41;64.57;101103.06;5035297;28;45288;-37
2022/11/25 08:52:14;;;;;;;;;11.75;6.75;;;;;11.40;64.50;101109.19;5031701;28;45451;-35
2022/11/25 08:54:39;;;;;;;;;8.00;6.00;;;;;11.40;64.52;101112.69;5025862;28;49794;-36
2022/11/25 08:57:05;;;;;;;;;10.00;6.25;;;;;11.44;64.48;101123.09;5016565;28;48382;-36
2022/11/25 08:59:30;;;;;;;;;10.50;7.75;;;;;11.46;64.27;101132.66;5026901;28;45552;-36
2022/11/25 09:01:55;;;;;;;;;8.25;6.00;;;;;11.48;64.63;101133.47;5030636;27;59058;-36
2022/11/25 09:04:21;;;;;;;;;12.75;6.75;;;;;11.49;64.35;101135.22;5030289;28;58750;-37
2022/11/25 09:06:46;;;;;;;;;10.50;6.50;;;;;11.52;63.96;101139.50;5057682;27;66350;-36
2022/11/25 09:09:11;;;;;;;;;7.75;6.00;;;;;11.50;64.19;101142.16;5030947;28;62851;-36
2022/11/25 09:11:37;;;;;;;;;8.75;4.50;;;;;11.51;64.29;101143.88;5059931;27;45366;-36
2022/11/25 09:14:02;;;;;;;;;12.00;5.75;;;;;11.53;64.22;101152.56;5033234;27;68067;-37
2022/11/25 09:16:27;;;;;;;;;4.00;4.00;;;;;11.56;63.80;101159.47;5037438;28;65520;-36
2022/11/25 09:18:53;;;;;;;;;8.50;4.75;;;;;11.58;63.88;101155.94;5036495;28;45285;-36
2022/11/25 09:21:18;;;;;;;;;7.50;6.00;;;;;11.62;64.03;101167.22;5037090;28;54549;-36
2022/11/25 09:23:44;;;;;;;;;11.50;5.75;;;;;11.65;64.00;101174.13;5083760;27;45297;-36
2022/11/25 09:26:19;;;;;;;;;6.50;3.50;;;;;11.68;63.86;101172.28;5052567;28;52106;-36
2022/11/25 09:28:45;;;;;;;;;7.50;5.25;;;;;11.71;64.04;101182.72;5036780;28;45927;-36
2022/11/25 09:31:10;;;;;;;;;9.25;7.00;;;;;11.76;63.44;101195.72;5035887;27;63249;-37
2022/11/25 09:33:35;;;;;;;;;6.25;5.50;;;;;11.76;63.49;101201.81;5032702;28;55427;-37
2022/11/25 09:36:01;;;;;;;;;10.75;4.25;;;;;11.77;63.60;101192.19;5037325;28;45256;-37
2022/11/25 09:38:27;;;;;;;;;5.50;4.50;;;;;11.79;63.30;101198.25;5025085;28;45204;-37
2022/11/25 09:40:58;;;;;;;;;4.50;4.00;;;;;11.78;63.20;101193.91;5037420;28;68363;-37
2022/11/25 09:46:50;;;;;;;;;8.00;4.00;;;;;11.73;63.32;101209.75;5039397;27;45374;-36
2022/11/25 09:50:20;;;;;;;;;6.00;4.50;;;;;11.71;63.39;101210.69;5040300;27;45282;-36
2022/11/25 09:52:56;;;;;;;;;8.75;5.25;;;;;11.69;62.98;101228.22;5008392;28;45368;-36
2022/11/25 09:55:25;;;;;;;;;8.50;4.75;;;;;11.70;63.38;101224.69;5010724;28;45378;-36
2022/11/25 09:57:56;;;;;;;;;9.00;4.50;;;;;11.71;63.35;101231.69;5032919;28;46438;-36
2022/11/25 10:00:23;;;;;;;;;9.50;8.50;;;;;11.72;63.07;101238.63;5037101;28;45374;-36
2022/11/25 10:03:20;;;;;;;;;9.50;7.00;;;;;11.74;63.35;101236.84;5023746;28;45347;-36
2022/11/25 10:05:56;;;;;;;;;7.50;4.75;;;;;11.75;63.11;101247.28;5021236;28;45381;-37
2022/11/25 10:08:25;;;;;;;;;8.50;4.50;;;;;11.76;63.14;101251.63;5053782;27;45321;-36
2022/11/25 10:11:22;;;;;;;;;8.25;5.00;;;;;11.75;63.39;101244.66;5084731;27;45393;-36
2022/11/25 10:13:51;;;;;;;;;8.00;4.00;;;;;11.77;62.91;101250.75;5009578;28;45382;-36
2022/11/25 10:16:35;;;;;;;;;7.75;4.00;;;;;11.79;63.39;101255.94;5027755;28;45454;-36
2022/11/25 10:19:10;;;;;;;;;5.00;5.00;;;;;11.77;63.07;101255.13;5035275;28;48101;-36
2022/11/25 10:21:35;;;;;;;;;6.75;5.00;;;;;11.73;62.74;101264.81;5016640;28;45259;-36
2022/11/25 10:24:03;;;;;;;;;7.25;4.00;;;;;11.74;63.10;101260.44;5017705;28;45436;-37
2022/11/25 10:26:34;;;;;;;;;8.00;2.00;;;;;11.75;62.42;101268.25;5017828;28;45388;-37
2022/11/25 10:29:13;;;;;;;;;5.50;3.75;;;;;11.76;62.80;101271.75;5029132;28;46527;-37
2022/11/25 10:31:41;;;;;;;;;9.00;5.00;;;;;11.76;63.21;101264.75;5018498;28;45228;-37
2022/11/25 10:34:41;;;;;;;;;6.00;4.00;;;;;11.79;62.84;101271.66;5039051;28;45466;-41
2022/11/25 10:37:24;;;;;;;;;10.25;5.00;;;;;11.81;62.79;101274.25;5021623;28;45481;-37
2022/11/25 10:39:49;;;;;;;;;4.25;3.25;;;;;11.83;62.65;101283.84;5032298;28;45364;-35
2022/11/25 10:42:20;;;;;;;;;7.00;4.75;;;;;11.86;62.39;101283.72;5021414;28;71042;-37
2022/11/25 10:44:46;;;;;;;;;8.00;4.75;;;;;11.83;62.65;101289.06;5036634;28;45389;-37
2022/11/25 10:47:17;;;;;;;;;6.00;4.00;;;;;11.87;62.85;101284.63;5016595;28;61681;-37
2022/11/25 10:50:07;;;;;;;;;7.25;3.75;;;;;11.89;62.71;101282.81;5021894;28;46007;-37
2022/11/25 10:52:40;;;;;;;;;6.25;5.25;;;;;11.91;62.74;101279.28;5037363;28;45814;-37
2022/11/25 10:55:13;;;;;;;;;6.50;3.75;;;;;11.95;62.59;101287.94;5049568;28;45479;-37
2022/11/25 10:57:38;;;;;;;;;4.75;3.75;;;;;11.97;62.27;101294.03;5035121;28;45409;-37
2022/11/25 11:00:06;;;;;;;;;8.00;4.00;;;;;11.98;62.52;101305.38;5037251;27;46399;-37
2022/11/25 11:02:34;;;;;;;;;8.50;2.50;;;;;11.98;62.24;101301.00;5024367;28;45435;-37
2022/11/25 11:05:07;;;;;;;;;8.00;4.00;;;;;12.01;62.38;101305.31;5033067;28;45327;-37
2022/11/25 11:07:35;;;;;;;;;5.00;4.50;;;;;12.05;62.29;101307.81;5033023;28;45414;-37
2022/11/25 11:10:20;;;;;;;;;8.25;5.50;;;;;12.09;62.43;101309.47;5028857;28;45338;-37
2022/11/25 11:13:04;;;;;;;;;6.50;4.75;;;;;12.16;62.17;101312.78;5032220;28;45893;-37
2022/11/25 11:15:31;;;;;;;;;11.25;7.00;;;;;12.17;62.31;101311.91;5024071;28;45377;-37
2022/11/25 11:17:59;;;;;;;;;12.25;6.00;;;;;12.22;62.29;101317.06;5047962;28;45246;-37
2022/11/25 11:20:27;;;;;;;;;10.25;5.25;;;;;12.27;62.26;101312.53;5034232;28;47318;-37
2022/11/25 11:22:55;;;;;;;;;8.50;6.75;;;;;12.33;61.87;101322.91;5031394;28;45612;-37
2022/11/25 11:25:22;;;;;;;;;5.50;5.00;;;;;12.35;62.04;101323.72;5022932;28;45479;-37
2022/11/25 11:27:47;;;;;;;;;13.75;7.50;;;;;12.39;61.79;101327.13;5048592;28;45738;-37
2022/11/25 11:30:22;;;;;;;;;6.75;3.00;;;;;12.44;61.26;101325.25;5034105;28;47283;-38
2022/11/25 11:32:58;;;;;;;;;5.75;3.00;;;;;12.46;61.38;101328.69;5024174;28;45220;-37